Terminal Aerodrome Forecast
Issued by NWS Wilmington, OH

Current Version | Previous Version | Text Only | Print | Product List | Glossary Off
Versions: 1 2 3 4 5 6 7 8 9 10 11 12 13 14 15 16 17 18 19

000
FTUS41 KILN 151133
TAFILN
TAF
KILN 151133Z 1512/1612 15006KT P6SM BKN200
     FM151600 20012G20KT P6SM OVC080
     FM151900 21014G22KT 3SM -SHRA BR OVC030
     FM152200 21014G22KT 5SM -SHRA BR OVC006
     FM160100 22012G18KT P6SM OVC006
     FM160400 27011KT P6SM OVC012=

USA.gov is the U.S. government's official web portal to all federal, state and local government web resources and services.